Date,TemperatureHighF,TemperatureAvgF,TemperatureLowF,DewpointHighF,DewpointAvgF,DewpointLowF,HumidityHigh,HumidityAvg,HumidityLow,PressureMaxIn,PressureMinIn,WindSpeedMaxMPH,WindSpeedAvgMPH,GustSpeedMaxMPH,PrecipitationSumIn
2013-10-1,57.2,52.3,49.3,48.9,45.6,-99.9,85,80,74,29.87,29.81,5,2,10,0.00
2013-10-2,59.7,55.0,52.3,54.6,51.1,47.3,94,87,82,29.84,29.75,8,1,8,0.06
2013-10-3,66.7,59.3,55.6,62.3,56.9,53.8,96,92,82,29.76,29.53,6,1,12,0.22
2013-10-4,64.2,58.2,54.3,61.8,56.2,51.4,96,93,87,29.81,29.53,2,0,4,0.12
2013-10-5,63.1,55.0,50.5,52.9,50.5,48.1,93,85,67,30.09,29.81,4,0,5,0.02
2013-10-6,66.4,59.5,54.3,58.2,54.6,51.3,90,84,72,30.08,30.04,5,0,6,0.00
2013-10-7,63.7,61.0,57.6,59.0,56.3,54.4,91,85,78,30.07,29.98,5,1,7,0.02
2013-10-8,58.8,54.7,49.6,55.9,51.4,45.7,93,89,81,30.13,29.97,8,1,9,0.10
2013-10-9,53.1,48.3,42.4,47.0,41.4,33.8,91,78,60,30.11,29.91,10,1,12,0.06
2013-10-10,50.2,44.8,39.4,38.9,36.0,31.9,79,71,62,30.39,30.11,10,1,11,0.00
2013-10-11,51.6,47.6,44.6,45.0,41.6,37.1,84,80,75,30.45,30.37,5,0,9,0.00
2013-10-12,51.6,48.8,43.0,47.2,43.0,-99.9,88,82,77,30.41,30.23,6,0,6,0.00
2013-10-13,54.7,48.6,39.9,47.7,44.7,37.7,94,87,73,30.24,29.99,4,0,7,0.00
2013-10-14,56.5,49.5,43.5,45.6,43.8,40.5,91,81,65,29.99,29.89,9,0,9,0.02
2013-10-15,54.1,48.5,39.7,49.6,45.0,37.0,92,88,80,29.97,29.86,2,0,3,0.00
2013-10-16,51.3,46.7,40.6,47.3,44.4,38.5,95,92,86,29.96,29.53,4,0,6,0.53
2013-10-17,55.0,49.1,46.2,52.9,47.7,45.1,97,95,91,29.94,29.59,1,0,3,0.31
2013-10-18,53.2,49.2,46.6,52.1,48.0,45.5,97,96,93,29.97,29.66,4,1,7,0.14
2013-10-19,59.2,53.2,50.5,58.0,52.0,49.4,97,96,94,29.65,29.43,4,0,6,0.24
2013-10-20,57.7,52.2,49.8,56.9,51.1,48.7,98,96,92,29.47,29.39,2,0,4,0.08
2013-10-21,58.3,52.1,47.5,56.8,50.1,45.2,97,93,90,29.51,29.27,3,0,7,0.12
2013-10-22,62.4,56.2,52.7,56.8,53.6,50.9,96,91,79,29.26,29.10,6,0,9,0.47
2013-10-23,54.3,50.8,43.7,53.0,47.1,39.2,96,87,68,29.55,29.00,7,1,12,0.06
2013-10-24,58.3,47.9,42.1,48.6,43.1,38.5,90,84,66,29.89,29.56,6,0,9,0.00
2013-10-25,59.4,51.6,44.6,56.3,49.1,41.9,96,91,80,29.83,29.31,6,1,8,0.41
2013-10-26,56.8,51.6,44.4,52.0,47.4,40.9,91,86,70,29.43,29.14,6,1,14,0.06
2013-10-27,53.4,48.7,44.4,47.5,44.8,42.0,92,86,79,29.18,28.87,7,1,11,0.31
2013-10-28,51.6,46.5,43.7,46.4,42.9,39.9,93,87,79,29.31,28.89,14,1,14,0.04
2013-10-29,52.2,44.7,41.0,43.8,40.2,37.1,90,84,72,29.84,29.32,7,0,8,0.00
2013-10-30,53.8,45.0,33.8,48.9,41.6,31.6,95,88,75,29.91,29.59,10,1,14,0.04
2013-10-31,54.5,46.4,42.4,45.4,41.4,38.1,89,83,68,29.82,29.58,10,1,10,0.04